Time;durP1;ratioP1;P1;durP2;ratioP2;P2;SDS_P1;SDS_P2;PMS_P1;PMS_P2;Temp;Humidity;BMP_temperature;BMP_pressure;BME280_temperature;BME280_humidity;BME280_pressure;Samples;Min_cycle;Max_cycle;Signal;HPM_P1;HPM_P2
2022/02/07 00:02:25;;;;;;;7.97;1.70;;;;;;;-149.78;100.00;50571.19;5039889;28;20041;-64
2022/02/07 00:04:51;;;;;;;8.23;1.27;;;;;;;-149.78;100.00;50545.75;5039642;28;20110;-63
2022/02/07 00:07:18;;;;;;;12.20;1.00;;;;;;;-149.78;100.00;50502.75;5038838;28;20037;-63
2022/02/07 00:09:44;;;;;;;7.43;0.90;;;;;;;-149.78;100.00;50526.22;5039485;28;20099;-60
2022/02/07 00:12:11;;;;;;;3.95;1.00;;;;;;;-149.78;100.00;50522.28;5039561;28;20044;-60
2022/02/07 00:14:38;;;;;;;7.78;1.60;;;;;;;-149.78;100.00;50510.56;5044626;28;20470;-60
2022/02/07 00:17:04;;;;;;;4.05;0.75;;;;;;;-149.78;100.00;50537.94;5057262;28;20043;-60
2022/02/07 00:19:29;;;;;;;9.32;1.20;;;;;;;-149.78;100.00;50532.06;5040781;28;20045;-60
2022/02/07 00:21:57;;;;;;;3.85;0.80;;;;;;;-149.78;100.00;50537.94;5041162;28;20037;-60
2022/02/07 00:24:23;;;;;;;5.63;1.13;;;;;;;-149.78;100.00;50528.16;5040969;28;20455;-60
2022/02/07 00:26:49;;;;;;;9.75;1.13;;;;;;;-149.78;100.00;50534.03;5040802;28;20090;-60
2022/02/07 00:29:15;;;;;;;4.63;1.00;;;;;;;-149.78;100.00;50526.22;5039682;28;20048;-60
2022/02/07 00:31:41;;;;;;;4.05;1.05;;;;;;;-149.78;100.00;50534.03;5039601;28;20400;-60
2022/02/07 00:34:07;;;;;;;7.22;0.93;;;;;;;-149.78;100.00;50526.22;5039754;28;20045;-60
2022/02/07 00:36:33;;;;;;;4.93;0.80;;;;;;;-149.78;100.00;50541.84;5040176;28;20445;-60
2022/02/07 00:39:06;;;;;;;10.90;1.42;;;;;;;-149.78;100.00;50541.84;5044466;28;20400;-60
2022/02/07 00:41:45;;;;;;;11.18;2.75;;;;;;;-149.78;100.00;50553.59;5044888;28;20041;-61
2022/02/07 00:44:15;;;;;;;9.88;1.10;;;;;;;-149.78;100.00;50526.22;5045415;28;20041;-60
2022/02/07 00:46:49;;;;;;;7.55;1.13;;;;;;;-149.78;100.00;50537.94;5044713;28;20033;-60
2022/02/07 00:49:15;;;;;;;9.82;1.10;;;;;;;-149.78;100.00;50537.94;5043692;28;20124;-64
2022/02/07 00:51:40;;;;;;;7.93;1.40;;;;;;;-149.78;100.00;50522.28;5045281;28;20119;-63
2022/02/07 00:54:06;;;;;;;8.13;0.90;;;;;;;-149.78;100.00;50534.03;5044950;28;20078;-63
2022/02/07 00:56:31;;;;;;;4.35;1.40;;;;;;;-149.78;100.00;50514.47;5045471;28;20475;-63
2022/02/07 00:58:57;;;;;;;5.28;0.85;;;;;;;-149.78;100.00;50516.44;5044269;28;20036;-63
2022/02/07 01:01:27;;;;;;;4.03;1.10;;;;;;;-149.78;100.00;50571.19;5044870;28;20086;-63
2022/02/07 01:03:54;;;;;;;3.60;1.05;;;;;;;-149.78;100.00;50498.81;5044665;28;20862;-63
2022/02/07 01:06:20;;;;;;;9.15;1.30;;;;;;;-149.78;100.00;50541.84;5044833;28;20040;-63
2022/02/07 01:08:51;;;;;;;5.57;1.15;;;;;;;-149.78;100.00;50524.25;5044926;28;20041;-64
2022/02/07 01:11:43;;;;;;;6.13;1.75;;;;;;;-149.78;100.00;50530.13;5044334;28;20094;-63
2022/02/07 01:14:15;;;;;;;9.32;1.63;;;;;;;-149.78;100.00;50559.47;5043996;28;20056;-64
2022/02/07 01:52:07;;;;;;;8.35;1.50;;;;;;;-149.78;100.00;50553.59;5043630;28;20037;-60
2022/02/07 01:55:30;;;;;;;7.32;1.20;;;;;;;-149.78;100.00;50530.13;5043203;28;20120;-60
2022/02/07 01:57:21;;;;;;;13.40;1.23;;;;;;;-149.78;100.00;50553.59;5044426;28;20413;-61
2022/02/07 01:59:47;;;;;;;11.55;1.60;;;;;;;-149.78;100.00;50543.81;5043227;28;20044;-60
2022/02/07 02:02:13;;;;;;;9.52;1.35;;;;;;;-149.78;100.00;50543.81;5041094;28;20041;-60
2022/02/07 02:04:38;;;;;;;9.82;1.23;;;;;;;-149.78;100.00;50561.41;5040699;28;20040;-60
2022/02/07 02:07:04;;;;;;;7.97;1.40;;;;;;;-149.78;100.00;50561.41;5041984;28;20040;-60
2022/02/07 02:09:30;;;;;;;7.57;1.67;;;;;;;-149.78;100.00;50530.13;5043108;28;20021;-61
2022/02/07 02:11:58;;;;;;;8.40;1.30;;;;;;;-149.78;100.00;50551.63;5042139;28;20032;-61
2022/02/07 02:19:56;;;;;;;7.93;1.15;;;;;;;-149.78;100.00;50506.66;5041646;28;20056;-64
2022/02/07 02:36:29;;;;;;;4.90;1.10;;;;;;;-149.78;100.00;50514.47;5043206;28;20037;-63
2022/02/07 02:46:56;;;;;;;13.32;1.58;;;;;;;-149.78;100.00;50557.50;5043114;28;20029;-63
2022/02/07 02:49:25;;;;;;;10.00;1.60;;;;;;;-149.78;100.00;50545.75;5042275;28;20378;-63
2022/02/07 02:51:50;;;;;;;8.20;1.38;;;;;;;-149.78;100.00;50537.94;5042997;28;20032;-63
2022/02/07 02:54:16;;;;;;;17.10;2.45;;;;;;;-149.78;100.00;50516.44;5042900;28;20083;-63
2022/02/07 02:56:42;;;;;;;15.50;2.25;;;;;;;-149.78;100.00;50539.91;5044240;28;20142;-63
2022/02/07 02:59:07;;;;;;;14.88;1.92;;;;;;;-149.78;100.00;50534.03;5027466;28;20037;-63
2022/02/07 03:01:33;;;;;;;7.68;1.42;;;;;;;-149.78;100.00;50565.31;5044907;28;20033;-63
2022/02/07 03:03:58;;;;;;;14.02;1.98;;;;;;;-149.78;100.00;50557.50;5046465;28;20123;-63
2022/02/07 03:06:24;;;;;;;10.90;1.73;;;;;;;-149.78;100.00;50545.75;5046161;28;20056;-63
2022/02/07 03:08:50;;;;;;;4.82;1.30;;;;;;;-149.78;100.00;50557.50;5045105;28;20868;-63
2022/02/07 03:11:21;;;;;;;9.63;1.67;;;;;;;-149.78;100.00;50537.94;5045552;28;20032;-64
2022/02/07 03:13:51;;;;;;;11.43;2.13;;;;;;;-149.78;100.00;50573.16;5045847;28;20170;-63
2022/02/07 03:19:02;;;;;;;7.68;1.40;;;;;;;-149.78;100.00;50534.03;5045466;28;20541;-64
2022/02/07 03:21:28;;;;;;;7.35;1.42;;;;;;;-149.78;100.00;50514.47;5042708;28;20131;-64
2022/02/07 03:23:54;;;;;;;19.00;1.95;;;;;;;-149.78;100.00;50545.75;5043210;28;20041;-64
2022/02/07 03:26:20;;;;;;;11.35;1.50;;;;;;;-149.78;100.00;50553.59;5041564;28;20028;-64
2022/02/07 03:28:50;;;;;;;3.95;1.30;;;;;;;-149.78;100.00;50518.38;5042665;28;20431;-64
2022/02/07 03:31:18;;;;;;;10.20;1.88;;;;;;;-149.78;100.00;50553.59;5042484;28;20031;-63
2022/02/07 03:33:44;;;;;;;5.60;1.15;;;;;;;-149.78;100.00;50508.59;5043118;28;20059;-64
2022/02/07 03:36:12;;;;;;;8.40;2.00;;;;;;;-149.78;100.00;50580.97;5042508;28;20034;-64
2022/02/07 03:38:38;;;;;;;8.93;1.65;;;;;;;-149.78;100.00;50561.41;5042872;28;20052;-64
2022/02/07 03:41:04;;;;;;;12.52;1.60;;;;;;;-149.78;100.00;50545.75;5042275;28;20354;-64
2022/02/07 03:43:30;;;;;;;9.18;1.83;;;;;;;-149.78;100.00;50561.41;5042648;28;20033;-63
2022/02/07 03:45:56;;;;;;;8.63;1.70;;;;;;;-149.78;100.00;50543.81;5040061;28;20623;-64
2022/02/07 03:48:22;;;;;;;12.07;1.70;;;;;;;-149.78;100.00;50573.16;5039808;28;20037;-64
2022/02/07 03:50:48;;;;;;;9.95;1.33;;;;;;;-149.78;100.00;50537.94;5037066;28;20032;-64
2022/02/07 03:53:14;;;;;;;13.70;2.00;;;;;;;-149.78;100.00;50561.41;5038753;28;20036;-64
2022/02/07 03:55:41;;;;;;;8.95;1.70;;;;;;;-149.78;100.00;50577.06;5039031;28;20031;-63
2022/02/07 03:58:07;;;;;;;8.52;1.60;;;;;;;-149.78;100.00;50557.50;5038331;28;20075;-63
2022/02/07 04:00:35;;;;;;;27.20;2.30;;;;;;;-149.78;100.00;50571.19;5038946;28;20036;-63
2022/02/07 04:03:05;;;;;;;8.27;1.40;;;;;;;-149.78;100.00;50557.50;5039448;28;20152;-63
2022/02/07 04:07:57;;;;;;;9.45;1.75;;;;;;;-149.78;100.00;50545.75;5040270;28;20041;-63
2022/02/07 04:10:24;;;;;;;14.50;1.88;;;;;;;-149.78;100.00;50553.59;5041776;28;20865;-63
2022/02/07 04:12:59;;;;;;;5.15;1.40;;;;;;;-149.78;100.00;50579.00;5042249;28;20135;-63
2022/02/07 04:15:26;;;;;;;12.98;1.77;;;;;;;-149.78;100.00;50541.84;5043200;28;20033;-63
2022/02/07 04:18:00;;;;;;;6.40;1.60;;;;;;;-149.78;100.00;50545.75;5043244;28;20045;-63
2022/02/07 04:20:26;;;;;;;7.95;1.63;;;;;;;-149.78;100.00;50545.75;5043350;28;20035;-63
2022/02/07 04:22:51;;;;;;;7.80;1.40;;;;;;;-149.78;100.00;50543.81;5042934;28;20060;-63
2022/02/07 04:25:17;;;;;;;10.30;1.10;;;;;;;-149.78;100.00;50543.81;5044104;28;20036;-63
2022/02/07 04:27:43;;;;;;;12.23;1.25;;;;;;;-149.78;100.00;50577.06;5041809;28;20048;-63
2022/02/07 04:30:10;;;;;;;6.57;1.17;;;;;;;-149.78;100.00;50539.91;5042534;28;20033;-63
2022/02/07 04:32:36;;;;;;;10.77;1.27;;;;;;;-149.78;100.00;50553.59;5041616;28;20089;-63
2022/02/07 04:35:03;;;;;;;9.07;1.60;;;;;;;-149.78;100.00;50563.38;5042966;28;20115;-63
2022/02/07 04:37:29;;;;;;;3.47;1.42;;;;;;;-149.78;100.00;50522.28;5042370;28;20541;-63
2022/02/07 04:39:54;;;;;;;14.27;1.38;;;;;;;-149.78;100.00;50532.06;5042514;28;20029;-61
2022/02/07 04:42:23;;;;;;;11.90;1.42;;;;;;;-149.78;100.00;50541.84;5040281;28;20067;-63
2022/02/07 04:55:41;;;;;;;6.95;1.27;;;;;;;-149.78;100.00;50541.84;5039007;28;20538;-63
2022/02/07 05:00:47;;;;;;;11.20;1.95;;;;;;;-149.78;100.00;50553.59;5040018;28;20112;-63
2022/02/07 05:03:20;;;;;;;7.43;1.33;;;;;;;-149.78;100.00;50541.84;5041199;28;20542;-63
2022/02/07 05:16:11;;;;;;;11.48;1.75;;;;;;;-149.78;100.00;50561.41;5039997;28;20029;-60
2022/02/07 05:18:36;;;;;;;8.32;2.10;;;;;;;-149.78;100.00;50535.97;5038781;28;20029;-61
2022/02/07 05:21:02;;;;;;;9.68;1.38;;;;;;;-149.78;100.00;50545.75;5039180;28;20029;-61
2022/02/07 05:23:27;;;;;;;13.65;2.05;;;;;;;-149.78;100.00;50580.97;5041050;28;20084;-60
2022/02/07 05:25:53;;;;;;;9.43;1.80;;;;;;;-149.78;100.00;50553.59;5043876;28;20106;-61
2022/02/07 05:28:19;;;;;;;6.72;1.65;;;;;;;-149.78;100.00;50569.22;5043752;28;20051;-61
2022/02/07 05:30:45;;;;;;;14.35;2.13;;;;;;;-149.78;100.00;50553.59;5044254;28;20607;-60
2022/02/07 05:33:10;;;;;;;11.07;1.60;;;;;;;-149.78;100.00;50579.00;5044084;28;20472;-61
2022/02/07 05:35:36;;;;;;;13.15;1.60;;;;;;;-149.78;100.00;50541.84;5043816;28;20041;-60
2022/02/07 05:38:05;;;;;;;12.50;1.58;;;;;;;-149.78;100.00;50580.97;5043914;28;20087;-60
2022/02/07 05:40:39;;;;;;;17.70;2.13;;;;;;;-149.78;100.00;50573.16;5043891;28;20036;-61
2022/02/07 05:43:05;;;;;;;10.75;1.80;;;;;;;-149.78;100.00;50541.84;5043152;28;20036;-63
2022/02/07 05:45:31;;;;;;;12.85;1.83;;;;;;;-149.78;100.00;50614.22;5044026;28;20094;-63
2022/02/07 05:47:56;;;;;;;16.35;1.98;;;;;;;-149.78;100.00;50565.31;5043583;28;20033;-63
2022/02/07 05:50:22;;;;;;;15.98;1.80;;;;;;;-149.78;100.00;50557.50;5041580;28;20446;-63
2022/02/07 05:52:48;;;;;;;14.82;1.90;;;;;;;-149.78;100.00;50563.38;5042016;28;20051;-63
2022/02/07 05:55:15;;;;;;;13.15;2.22;;;;;;;-149.78;100.00;50582.94;5043059;28;20606;-63
2022/02/07 05:57:40;;;;;;;14.52;2.08;;;;;;;-149.78;100.00;50584.88;5043524;28;20037;-63
2022/02/07 06:00:08;;;;;;;12.35;1.90;;;;;;;-149.78;100.00;50616.19;5043560;28;20040;-63
2022/02/07 06:02:34;;;;;;;10.82;2.03;;;;;;;-149.78;100.00;50579.00;5041327;28;20040;-63
2022/02/07 06:04:59;;;;;;;8.48;1.92;;;;;;;-149.78;100.00;50545.75;5041020;28;20044;-63
2022/02/07 06:07:25;;;;;;;9.63;1.58;;;;;;;-149.78;100.00;50553.59;5043151;28;20037;-62
2022/02/07 06:09:51;;;;;;;16.05;1.55;;;;;;;-149.78;100.00;50547.72;5043112;28;20029;-63
2022/02/07 06:12:17;;;;;;;11.93;1.80;;;;;;;-149.78;100.00;50545.75;5042572;28;20033;-62
2022/02/07 06:14:43;;;;;;;14.57;2.10;;;;;;;-149.78;100.00;50594.66;5043833;28;20033;-63
2022/02/07 06:17:10;;;;;;;8.25;2.05;;;;;;;-149.78;100.00;50559.47;5042301;28;20040;-63
2022/02/07 06:19:36;;;;;;;14.38;1.77;;;;;;;-149.78;100.00;50571.19;5041668;28;20044;-63
2022/02/07 06:22:02;;;;;;;11.23;1.92;;;;;;;-149.78;100.00;50573.16;5042177;28;20040;-63
2022/02/07 06:24:28;;;;;;;12.93;1.75;;;;;;;-149.78;100.00;50573.16;5041524;28;20049;-63
2022/02/07 06:26:53;;;;;;;9.55;1.95;;;;;;;-149.78;100.00;50534.03;5041968;28;20148;-63
2022/02/07 06:29:19;;;;;;;14.75;2.00;;;;;;;-149.78;100.00;50553.59;5041916;28;20037;-63
2022/02/07 06:31:45;;;;;;;16.83;2.97;;;;;;;-149.78;100.00;50573.16;5040859;28;20033;-62
2022/02/07 06:34:11;;;;;;;12.50;1.90;;;;;;;-149.78;100.00;50549.69;5040046;28;20111;-63
2022/02/07 06:36:37;;;;;;;9.85;2.15;;;;;;;-149.78;100.00;50580.97;5041261;28;20081;-63
2022/02/07 06:39:03;;;;;;;14.05;2.15;;;;;;;-149.78;100.00;50559.47;5041499;28;20084;-63
2022/02/07 06:41:29;;;;;;;8.90;2.08;;;;;;;-149.78;100.00;50590.75;5041821;28;20040;-63
2022/02/07 06:43:54;;;;;;;14.10;2.70;;;;;;;-149.78;100.00;50580.97;5041279;28;20041;-63
2022/02/07 06:46:20;;;;;;;14.25;2.10;;;;;;;-149.78;100.00;50584.88;5042483;28;20048;-62
2022/02/07 06:48:46;;;;;;;11.25;2.22;;;;;;;-149.78;100.00;50592.72;5042811;28;20037;-63
2022/02/07 06:51:11;;;;;;;17.17;2.10;;;;;;;-149.78;100.00;50551.63;5043487;28;20102;-63
2022/02/07 06:53:37;;;;;;;15.07;2.75;;;;;;;-149.78;100.00;50577.06;5043000;28;20032;-61
2022/02/07 06:56:03;;;;;;;10.95;2.00;;;;;;;-149.78;100.00;50586.84;5043126;28;20776;-61
2022/02/07 06:58:30;;;;;;;17.55;2.40;;;;;;;-149.78;100.00;50577.06;5042819;28;20107;-61
2022/02/07 07:00:55;;;;;;;10.10;2.42;;;;;;;-149.78;100.00;50594.66;5043212;28;20039;-61
2022/02/07 07:03:22;;;;;;;12.98;2.22;;;;;;;-149.78;100.00;50557.50;5039917;28;20040;-60
2022/02/07 07:05:50;;;;;;;14.25;2.67;;;;;;;-149.78;100.00;50590.75;5041990;28;20029;-60
2022/02/07 07:08:17;;;;;;;14.98;2.15;;;;;;;-149.78;100.00;50557.50;5041653;28;20635;-62
2022/02/07 07:10:44;;;;;;;12.15;2.28;;;;;;;-149.78;100.00;50579.00;5038503;28;20500;-62
2022/02/07 07:13:13;;;;;;;19.25;2.50;;;;;;;-149.78;100.00;50543.81;5038984;28;20032;-62
2022/02/07 07:15:48;;;;;;;14.30;2.65;;;;;;;-149.78;100.00;50577.06;5047996;28;20037;-62
2022/02/07 07:18:14;;;;;;;12.45;2.63;;;;;;;-149.78;100.00;50602.47;5048867;28;20051;-60
2022/02/07 07:20:39;;;;;;;11.20;2.35;;;;;;;-149.78;100.00;50577.06;5048555;28;20127;-60
2022/02/07 07:23:05;;;;;;;16.42;3.08;;;;;;;-149.78;100.00;50553.59;5048432;28;20056;-60
2022/02/07 07:25:31;;;;;;;12.98;2.47;;;;;;;-149.78;100.00;50579.00;5054963;28;20032;-60
2022/02/07 07:28:03;;;;;;;10.13;2.50;;;;;;;-149.78;100.00;50588.78;5041673;28;20037;-60
2022/02/07 07:30:34;;;;;;;13.50;2.50;;;;;;;-149.78;100.00;50575.09;5047582;28;20033;-60
2022/02/07 07:33:08;;;;;;;17.40;3.10;;;;;;;-149.78;100.00;50565.31;5044476;28;20033;-63
2022/02/07 07:35:33;;;;;;;9.55;2.90;;;;;;;-149.78;100.00;50545.75;5039269;28;20064;-60
2022/02/07 07:37:59;;;;;;;13.80;2.72;;;;;;;-149.78;100.00;50557.50;5048589;28;20052;-61
2022/02/07 07:40:25;;;;;;;19.00;3.10;;;;;;;-149.78;100.00;50549.69;5062332;28;20558;-60
2022/02/07 07:42:54;;;;;;;14.30;3.10;;;;;;;-149.78;100.00;50596.63;5053643;28;20029;-60
2022/02/07 07:45:24;;;;;;;17.83;3.10;;;;;;;-149.78;100.00;50565.31;5053643;28;20469;-61
2022/02/07 07:47:56;;;;;;;16.85;2.80;;;;;;;-149.78;100.00;50549.69;5051056;28;20035;-62
2022/02/07 07:51:06;;;;;;;21.95;2.92;;;;;;;-149.78;100.00;50534.03;5052227;28;20057;-61
2022/02/07 07:53:21;;;;;;;12.23;2.63;;;;;;;-149.78;100.00;50555.53;5055494;28;20044;-62
2022/02/07 08:01:26;;;;;;;22.40;4.15;;;;;;;-149.78;100.00;50530.13;5046932;28;20037;-61
2022/02/07 08:03:53;;;;;;;16.33;3.47;;;;;;;-149.78;100.00;50569.22;5051613;28;20052;-60
2022/02/07 08:09:11;;;;;;;21.80;3.92;;;;;;;-149.78;100.00;50535.97;5045588;28;20044;-60
2022/02/07 08:11:32;;;;;;;20.13;4.80;;;;;;;-149.78;100.00;50537.94;5042661;28;20069;-60
2022/02/07 08:13:59;;;;;;;19.42;3.20;;;;;;;-149.78;100.00;50541.84;5043675;28;20029;-60
2022/02/07 08:16:25;;;;;;;22.15;4.32;;;;;;;-149.78;100.00;50569.22;5047621;28;20411;-60
2022/02/07 08:18:52;;;;;;;19.80;3.70;;;;;;;-149.78;100.00;50553.59;5040272;28;20033;-60
2022/02/07 08:21:19;;;;;;;19.40;4.53;;;;;;;-149.78;100.00;50545.75;5049441;28;20037;-60
2022/02/07 08:23:45;;;;;;;19.17;3.97;;;;;;;-149.78;100.00;50545.75;5068719;28;20088;-59
2022/02/07 08:26:10;;;;;;;12.48;3.38;;;;;;;-149.78;100.00;50526.22;5060207;28;20126;-60
2022/02/07 08:28:37;;;;;;;15.80;4.05;;;;;;;-149.78;100.00;50535.97;5061637;28;20480;-60
2022/02/07 08:31:03;;;;;;;25.13;4.97;;;;;;;-149.78;100.00;50514.47;5067629;28;20058;-60
2022/02/07 08:33:30;;;;;;;16.75;4.40;;;;;;;-149.78;100.00;50541.84;5055022;28;20115;-60
2022/02/07 08:35:55;;;;;;;26.67;5.28;;;;;;;-149.78;100.00;50541.84;5067319;28;20040;-60
2022/02/07 08:38:21;;;;;;;22.00;5.60;;;;;;;-149.78;100.00;50565.31;5061608;28;20041;-60
2022/02/07 08:40:47;;;;;;;17.27;5.93;;;;;;;-149.78;100.00;50577.06;5060362;28;20029;-60
2022/02/07 08:43:13;;;;;;;21.05;7.60;;;;;;;-149.78;100.00;50514.47;5068793;28;20029;-60
2022/02/07 08:45:40;;;;;;;24.10;6.07;;;;;;;-149.78;100.00;50522.28;5053017;28;20032;-60
2022/02/07 08:48:06;;;;;;;26.92;6.63;;;;;;;-149.78;100.00;50514.47;5059104;28;20043;-60
2022/02/07 08:50:32;;;;;;;24.48;6.93;;;;;;;-149.78;100.00;50518.38;5061631;28;20033;-60
2022/02/07 08:53:00;;;;;;;29.10;7.70;;;;;;;-149.78;100.00;50535.97;5064654;28;20395;-60
2022/02/07 08:55:32;;;;;;;30.30;8.60;;;;;;;-149.78;100.00;50510.56;5056060;28;20041;-60
2022/02/07 08:58:03;;;;;;;26.73;7.75;;;;;;;-149.78;100.00;50526.22;5066366;28;20638;-60
2022/02/07 09:01:44;;;;;;;28.90;7.57;;;;;;;-149.78;100.00;50512.50;5060241;28;20061;-60
2022/02/07 09:09:06;;;;;;;31.25;8.82;;;;;;;-149.78;100.00;50549.69;5069458;28;20044;-60
2022/02/07 09:11:33;;;;;;;33.72;8.23;;;;;;;-149.78;100.00;50508.59;5059458;28;20037;-60
2022/02/07 09:14:09;;;;;;;21.10;7.22;;;;;;;-149.78;100.00;50549.69;5052683;28;20111;-60
2022/02/07 09:16:36;;;;;;;34.10;8.85;;;;;;;-149.78;100.00;50494.91;5060645;28;20115;-60
2022/02/07 09:19:02;;;;;;;26.73;8.18;;;;;;;-149.78;100.00;50502.75;5038450;28;20128;-60
2022/02/07 09:21:29;;;;;;;24.63;7.72;;;;;;;-149.78;100.00;50518.38;5056202;28;20042;-60
2022/02/07 09:23:56;;;;;;;21.50;7.50;;;;;;;-149.78;100.00;50522.28;5051073;28;20049;-63
2022/02/07 09:26:23;;;;;;;27.80;7.40;;;;;;;-149.78;100.00;50526.22;5052359;28;20044;-63
2022/02/07 09:28:49;;;;;;;20.10;7.05;;;;;;;-149.78;100.00;50530.13;5051122;28;20040;-63
2022/02/07 09:31:15;;;;;;;21.65;7.97;;;;;;;-149.78;100.00;50534.03;5071774;28;20041;-64
2022/02/07 09:33:44;;;;;;;27.10;6.53;;;;;;;-149.78;100.00;50522.28;5042631;28;20040;-63
2022/02/07 09:36:11;;;;;;;23.83;6.28;;;;;;;-149.78;100.00;50514.47;5068416;28;20041;-64
2022/02/07 09:38:36;;;;;;;25.70;8.18;;;;;;;-149.78;100.00;50526.22;5066729;28;20040;-60
2022/02/07 09:41:03;;;;;;;17.67;5.55;;;;;;;-149.78;100.00;50534.03;5061137;28;20119;-61
2022/02/07 09:43:32;;;;;;;13.93;5.45;;;;;;;-149.78;100.00;50516.44;5070579;28;20053;-61
2022/02/07 09:46:06;;;;;;;21.92;4.93;;;;;;;-149.78;100.00;50483.19;5049957;28;20041;-60
2022/02/07 09:48:38;;;;;;;14.52;4.40;;;;;;;-149.78;100.00;50565.31;5052707;28;20465;-61
2022/02/07 09:51:04;;;;;;;;;;;;;;;-149.78;100.00;50510.56;5053704;28;20104;-60
2022/02/07 09:53:30;;;;;;;15.73;4.88;;;;;;;-149.78;100.00;50518.38;5071950;28;20003;-60
2022/02/07 09:55:58;;;;;;;16.38;5.05;;;;;;;-149.78;100.00;50483.19;5053769;28;20040;-60
2022/02/07 09:58:24;;;;;;;26.02;4.00;;;;;;;-149.78;100.00;50485.13;5039151;28;20117;-60
2022/02/07 10:00:50;;;;;;;16.85;3.83;;;;;;;-149.78;100.00;50534.03;5044283;28;20041;-61
2022/02/07 10:03:25;;;;;;;17.65;4.65;;;;;;;-149.78;100.00;50477.31;5068861;28;20032;-60
2022/02/07 10:06:04;;;;;;;15.98;4.35;;;;;;;-149.78;100.00;50514.47;5044592;28;20153;-60
2022/02/07 10:19:06;;;;;;;12.45;3.53;;;;;;;-149.78;100.00;50477.31;5067484;28;20051;-60
2022/02/07 10:42:00;;;;;;;15.75;3.30;;;;;;;-149.78;100.00;50485.13;5055307;28;20044;-63
2022/02/07 10:47:09;;;;;;;20.15;3.17;;;;;;;-149.78;100.00;50510.56;5052843;28;20040;-63
2022/02/07 10:49:35;;;;;;;15.85;4.57;;;;;;;-149.78;100.00;50487.09;5039533;28;20033;-63
2022/02/07 10:52:02;;;;;;;14.27;3.47;;;;;;;-149.78;100.00;50471.44;5056452;28;20036;-63
2022/02/07 10:54:28;;;;;;;17.30;3.92;;;;;;;-149.78;100.00;50467.53;5064095;28;20029;-63
2022/02/07 10:56:56;;;;;;;12.75;2.92;;;;;;;-149.78;100.00;50504.69;5061795;28;20446;-63
2022/02/07 10:59:22;;;;;;;11.63;2.85;;;;;;;-149.78;100.00;50502.75;5069989;28;20040;-63
2022/02/07 11:04:17;;;;;;;15.25;2.83;;;;;;;-149.78;100.00;50457.75;5062903;28;20421;-63
2022/02/07 11:06:46;;;;;;;11.38;2.83;;;;;;;-149.78;100.00;50449.94;5057381;28;20037;-63
2022/02/07 11:09:26;;;;;;;13.55;2.92;;;;;;;-149.78;100.00;50440.16;5057749;28;20067;-63
2022/02/07 11:17:24;;;;;;;12.52;2.58;;;;;;;-149.78;100.00;50496.88;5062226;28;20043;-63
2022/02/07 11:27:55;;;;;;;11.63;2.72;;;;;;;-149.78;100.00;50455.81;5042909;28;20048;-63
2022/02/07 11:30:39;;;;;;;10.65;2.30;;;;;;;-149.78;100.00;50449.94;5057791;28;20409;-63
2022/02/07 11:33:07;;;;;;;13.35;2.30;;;;;;;-149.78;100.00;50467.53;5039982;28;20047;-63
2022/02/07 11:35:48;;;;;;;12.15;2.63;;;;;;;-149.78;100.00;50463.63;5042365;28;20461;-63
2022/02/07 11:38:18;;;;;;;11.13;2.40;;;;;;;-149.78;100.00;50447.97;5038741;28;20038;-63
2022/02/07 11:41:01;;;;;;;14.30;2.42;;;;;;;-149.78;100.00;50459.72;5039134;28;20041;-63
2022/02/07 11:43:38;;;;;;;20.40;3.20;;;;;;;-149.78;100.00;50447.97;5040233;28;20112;-64
2022/02/07 11:46:13;;;;;;;21.63;2.88;;;;;;;-149.78;100.00;50432.31;5044937;28;20104;-63
2022/02/07 11:48:55;;;;;;;15.07;2.35;;;;;;;-149.78;100.00;50408.84;5047797;28;20546;-63
2022/02/07 11:51:22;;;;;;;18.33;3.35;;;;;;;-149.78;100.00;50420.59;5049505;28;20098;-63
2022/02/07 11:53:57;;;;;;;15.77;3.03;;;;;;;-149.78;100.00;50465.56;5042799;28;20037;-63
2022/02/07 11:56:33;;;;;;;11.43;2.25;;;;;;;-149.78;100.00;50467.53;5043154;28;20416;-63
2022/02/07 11:59:01;;;;;;;18.70;2.50;;;;;;;-149.78;100.00;50463.63;5042335;28;20385;-64
2022/02/07 12:02:01;;;;;;;18.27;3.33;;;;;;;-149.78;100.00;50412.78;5044838;28;20041;-63
2022/02/07 12:04:39;;;;;;;14.68;2.83;;;;;;;-149.78;100.00;50440.16;5044913;28;20037;-63
2022/02/07 12:07:05;;;;;;;16.55;2.83;;;;;;;-149.78;100.00;50420.59;5045657;28;20029;-63
2022/02/07 12:09:30;;;;;;;13.77;2.97;;;;;;;-149.78;100.00;50428.41;5039334;28;20028;-63
2022/02/07 12:11:56;;;;;;;12.50;2.50;;;;;;;-149.78;100.00;50463.63;5039479;28;20370;-63
2022/02/07 12:14:37;;;;;;;14.07;2.97;;;;;;;-149.78;100.00;50404.94;5041964;28;20041;-64
2022/02/07 12:17:04;;;;;;;14.32;2.60;;;;;;;-149.78;100.00;50438.19;5038452;28;20155;-64
2022/02/07 12:19:40;;;;;;;16.33;2.78;;;;;;;-149.78;100.00;50436.25;5052556;28;20032;-64
2022/02/07 12:22:16;;;;;;;12.35;2.75;;;;;;;-149.78;100.00;50440.16;5043374;28;20511;-63
2022/02/07 12:24:52;;;;;;;13.73;2.60;;;;;;;-149.78;100.00;50467.53;5037068;28;20377;-64
2022/02/07 12:27:19;;;;;;;14.35;2.83;;;;;;;-149.78;100.00;50440.16;5034587;28;20045;-63
2022/02/07 12:30:31;;;;;;;13.52;2.78;;;;;;;-149.78;100.00;50473.41;5047520;28;20041;-61
2022/02/07 12:32:35;;;;;;;13.18;3.63;;;;;;;-149.78;100.00;50471.44;5051070;28;20056;-60
2022/02/07 12:35:04;;;;;;;15.60;3.00;;;;;;;-149.78;100.00;50426.47;5062587;28;20125;-60
2022/02/07 12:37:37;;;;;;;14.02;2.55;;;;;;;-149.78;100.00;50401.03;5057048;28;20484;-60
2022/02/07 12:40:04;;;;;;;18.35;3.35;;;;;;;-149.78;100.00;50461.66;5061753;28;20044;-60
2022/02/07 12:42:34;;;;;;;14.88;2.80;;;;;;;-149.78;100.00;50459.72;5072953;28;20036;-61
2022/02/07 12:45:02;;;;;;;19.00;3.92;;;;;;;-149.78;100.00;50457.75;5062626;28;20040;-61
2022/02/07 12:47:28;;;;;;;22.88;2.83;;;;;;;-149.78;100.00;50436.25;5066409;28;20108;-61
2022/02/07 12:49:56;;;;;;;10.98;3.08;;;;;;;-149.78;100.00;50436.25;5055819;28;20116;-60
2022/02/07 12:52:36;;;;;;;10.10;2.42;;;;;;;-149.78;100.00;50432.31;5067071;28;20112;-61
2022/02/07 12:55:03;;;;;;;6.68;2.03;;;;;;;-149.78;100.00;50438.19;5060126;28;20025;-60
2022/02/07 12:57:36;;;;;;;8.35;1.65;;;;;;;-149.78;100.00;50451.88;5045033;28;20037;-61
2022/02/07 13:00:03;;;;;;;8.40;1.90;;;;;;;-149.78;100.00;50461.66;5043569;28;20038;-60
2022/02/07 13:02:29;;;;;;;7.50;1.80;;;;;;;-149.78;100.00;50457.75;5040849;28;20040;-61
2022/02/07 13:04:55;;;;;;;5.95;1.50;;;;;;;-149.78;100.00;50438.19;5040052;28;20041;-60
2022/02/07 13:07:24;;;;;;;11.52;1.50;;;;;;;-149.78;100.00;50491.00;5042322;28;20037;-61
2022/02/07 13:09:53;;;;;;;3.10;1.00;;;;;;;-149.78;100.00;50465.56;5052321;28;20130;-61
2022/02/07 13:14:57;;;;;;;3.83;1.10;;;;;;;-149.78;100.00;50397.13;5058120;28;20037;-61
2022/02/07 13:17:27;;;;;;;4.68;1.10;;;;;;;-149.78;100.00;50416.69;5063698;28;20108;-61
2022/02/07 13:19:54;;;;;;;4.05;1.02;;;;;;;-149.78;100.00;50436.25;5057177;28;20037;-61
2022/02/07 13:22:22;;;;;;;2.10;0.95;;;;;;;-149.78;100.00;50449.94;5047972;28;20104;-60
2022/02/07 13:24:55;;;;;;;7.47;1.35;;;;;;;-149.78;100.00;50487.09;5038687;28;20073;-60
2022/02/07 13:27:22;;;;;;;6.13;1.50;;;;;;;-149.78;100.00;50432.31;5043872;28;20055;-60
2022/02/07 13:29:51;;;;;;;3.83;1.10;;;;;;;-149.78;100.00;50438.19;5045890;28;20056;-61
2022/02/07 13:32:30;;;;;;;3.40;0.90;;;;;;;-149.78;100.00;50459.72;5037068;28;20107;-61
2022/02/07 13:35:13;;;;;;;5.75;1.13;;;;;;;-149.78;100.00;50451.88;5049051;28;20079;-61
2022/02/07 13:37:41;;;;;;;3.10;1.23;;;;;;;-149.78;100.00;50471.44;5072182;28;20519;-60
2022/02/07 13:40:12;;;;;;;4.40;1.23;;;;;;;-149.78;100.00;50463.63;5053917;28;20033;-60
2022/02/07 13:42:50;;;;;;;3.95;1.58;;;;;;;-149.78;100.00;50446.03;5045548;28;20141;-60
2022/02/07 13:45:24;;;;;;;7.78;2.15;;;;;;;-149.78;100.00;50434.28;5044097;28;20033;-59
2022/02/07 13:47:52;;;;;;;8.40;1.58;;;;;;;-149.78;100.00;50424.50;5050883;28;20032;-60
2022/02/07 13:50:22;;;;;;;5.82;1.42;;;;;;;-149.78;100.00;50467.53;5046116;28;20102;-60